Flight Track Log - Related Links

Times and Time Zones

All times are in EDT time to prevent confusion due to time zone crossing. See the C-GGBL flight status page for this flight to view local times or setup timezone preferences in your user account.

Time Position Orientation Groundspeed Altitude Reporting Facility
EDT Latitude Longitude Course Direction KTS MPH feet Rate Location/Type
Sun 02:51:19 PM 49.5000 -119.5833 348° North 180 207 4,800  Level Vancouver Center
Sun 02:52:19 PM 49.5500 -119.6000 270° West 210 242 8,900 3,850 Climbing Vancouver Center
Sun 02:53:19 PM 49.5500 -119.7000 270° West 260 299 12,500 3,650 Climbing Vancouver Center
Sun 02:54:19 PM 49.5500 -119.8333 270° West 300 345 16,200 3,750 Climbing Vancouver Center
Sun 02:55:19 PM 49.5500 -119.9833 270° West 330 380 20,000 3,350 Climbing Vancouver Center
Sun 02:56:19 PM 49.5500 -120.1500 260° West 350 403 22,900 2,000 Climbing Vancouver Center
Sun 02:57:19 PM 49.5333 -120.3000 270° West 380 437 24,000 550 Climbing Vancouver Center
Sun 02:58:19 PM 49.5333 -120.4833 278° West 400 460 24,000  Level Vancouver Center
Sun 02:59:19 PM 49.5500 -120.6667 261° West 410 472 24,000  Level Vancouver Center
Sun 03:00:19 PM 49.5333 -120.8333 270° West 420 483 24,000  Level Vancouver Center
Sun 03:01:19 PM 49.5333 -121.0167 270° West 430 495 24,000  Level Vancouver Center
Sun 03:02:19 PM 49.5333 -121.2000 270° West 430 495 24,000  Level Vancouver Center
Sun 03:03:19 PM 49.5333 -121.3833 254° West 420 483 24,000  Level Vancouver Center
Sun 03:04:19 PM 49.5000 -121.5667 243° Southwest 420 483 24,000  Level Vancouver Center
Sun 03:05:19 PM 49.4500 -121.7167 257° West 430 495 24,000  Level Vancouver Center
Sun 03:06:19 PM 49.4167 -121.9333 270° West 440 506 24,000  Level Vancouver Center
Sun 03:07:19 PM 49.4167 -122.0833 256° West 440 506 24,000 -800 Level Vancouver Center
Sun 03:08:19 PM 49.3833 -122.2833 251° West 430 495 22,400 -2,150 Descending Vancouver Center
Sun 03:09:19 PM 49.3500 -122.4333 254° West 420 483 19,700 -2,650 Descending Vancouver Center
Sun 03:10:19 PM 49.3167 -122.6167 249° West 400 460 17,100 -2,450 Descending Vancouver Center
Sun 03:11:19 PM 49.2833 -122.7500 251° West 370 426 14,800 -2,150 Descending Vancouver Center
Sun 03:12:19 PM 49.2500 -122.9000 259° West 350 403 12,800 -2,050 Descending Vancouver Center
Sun 03:13:19 PM 49.2333 -123.0333 281° West 320 368 10,700 -2,000 Descending Vancouver Center
Sun 03:14:19 PM 49.2500 -123.1667 284° West 300 345 8,800 -1,900 Descending Vancouver Center
Sun 03:15:19 PM 49.2667 -123.2667 282° West 290 334 6,900 -1,750 Descending Vancouver Center
Sun 03:16:19 PM 49.2833 -123.3833 270° West 270 311 5,300 -1,450 Descending Vancouver Center
Sun 03:17:19 PM 49.2833 -123.5000 192° South 260 299 4,000 -1,150 Descending Vancouver Center
Sun 03:18:19 PM 49.2333 -123.5167 117° Southeast 240 276 3,000 -500 Descending Vancouver Center
Sun 03:19:19 PM 49.2167 -123.4667 107° East 180 207 3,000 -200 Level Vancouver Center
Sun 03:20:19 PM 49.2000 -123.3833 90° East 180 207 2,600 -700 Descending Vancouver Center
Sun 03:21:19 PM 49.2000 -123.3167 117° Southeast 160 184 1,600 -850 Descending Vancouver Center
Sun 03:22:19 PM 49.1833 -123.2667 117° Southeast 150 173 900 -700 Descending Vancouver Center

Login

Don't have an account? Register now (free) for customized features, flight alerts, and more!